Terminal Aerodrome Forecast
Issued by NWS Green Bay, WI

Home | Current Version | Previous Version | Graphics & Text | Print | Product List | Glossary On
Versions: 1 2 3 4 5 6 7 8 9 10 11 12 13 14 15 16 17 18 19 20 21 22 23 24 25 26 27 28 29 30 31
000
FTUS43 KGRB 181100
TAFGRB
TAF
KGRB 181132Z 1812/1912 34006KT P6SM BKN025
     FM181330 35005KT P6SM SKC
     FM181600 35009KT P6SM SCT040 SCT100
     FM182200 04009G16KT P6SM SCT100
     FM190000 08006KT P6SM SCT100
      TEMPO 1908/1912 BKN100=

USA.gov is the U.S. government's official web portal to all federal, state and local government web resources and services.